SKLT/LET METAR and TAF weather

Enter ICAO airport designator
Station Type Date Time Source
SKLT METAR 2020/01/23 05:00 UTC NOAA

SKLT 230500Z 02010KT 5000 TSRA FEW010CB BKN012 25/25 A2984 RMK CB/N/NE


Station Type Date Time Source
SKLT Decoded METAR 2020/01/23 05:00 UTC NOAA

Leticia / Vasquez Cobo, Colombia (SKLT) 04-10S 069-57W 84M
Jan 23, 2020 - 12:00 AM EST / 2020.01.23 0500 UTC
Wind: from the NNE (020 degrees) at 12 MPH (10 KT):0
Visibility: 3 mile(s):0
Sky conditions: mostly cloudy
Weather: rain with thunder; Cumulonimbus clouds observed
Temperature: 77 F (25 C)
Dew Point: 77 F (25 C)
Relative Humidity: 100%
Pressure (altimeter): 29.84 in. Hg (1010 hPa)
ob: SKLT 230500Z 02010KT 5000 TSRA FEW010CB BKN012 25/25 A2984 RMK CB/N/NE
cycle: 5

Station Type Date Time Source
SKLT TAF 2020/01/23 06:45 UTC NOAA

TAF SKLT 230430Z 2306/2406 00000KT 9999 SCT010 SCT100
TEMPO 2306/2309 5000 RA SCT010CB BKN080
TEMPO 2310/2313 2000 BR SCT007 TX35/2318Z TN23/2311Z

Example: see airport list